Temp: 13.4°C   Baro: 1008.4mb
  Wind: 4.0mph   Dir: WSW (252°)
  Rain: 6.4mm (0.0mm/hr)
  Sun: 302W/m2  Humidity: 92%

Historic data

Bath Spa Weather Station Historical Data
Daily Summary for June 02, 2023 Units:  Both    English   Metric
Daily Weekly Monthly Yearly Custom
  High: Low: Average:
Temperature: 70 °F /  21.1 °C 49.8 °F /  9.9 °C 58 °F /  14.4 °C
Dew Point: 52.1 °F /  11.2 °C 43.2 °F /  6.2 °C 46.9 °F /  8.3 °C
Humidity: 78% 51% 68%
Wind Speed: 9mph /  14.5km/h - 5mph /  8km/h
Wind Gust: 20mph /  32.2km/h - -
Wind- - ENE
Pressure: 30.30 in /  1026 hPa 30.22 in /  1023.2 hPa -
Precipitation: 0.00 in /  0 mm    
Historical Graphs
 
 
Tabular Data for June 02, 2023
Time Temperature Dew Point Pressure Wind Wind Speed Wind Gust Humidity Rainfall Rate (Hourly) solar
00:09 53 °F /  11.7 °C 46.3 °F /  7.9 °C 30.29in /  1025.6hPa NE 4.3mph /  6.9km/h 14mph /  22.5km/h 78% 0.00in /  0mm 0 W/m2
00:14 52.9 °F /  11.6 °C 46.2 °F /  7.9 °C 30.29in /  1025.6hPa ENE 6mph /  9.7km/h 15mph /  24.1km/h 78% 0.00in /  0mm 0 W/m2
00:19 52.8 °F /  11.6 °C 46.1 °F /  7.8 °C 30.29in /  1025.6hPa ENE 5.8mph /  9.3km/h 14mph /  22.5km/h 78% 0.00in /  0mm 0 W/m2
00:24 52.7 °F /  11.5 °C 46 °F /  7.8 °C 30.29in /  1025.6hPa East 3.1mph /  5km/h 10mph /  16.1km/h 78% 0.00in /  0mm 0 W/m2
00:29 52.6 °F /  11.4 °C 45.9 °F /  7.7 °C 30.29in /  1025.6hPa NNE 3.1mph /  5km/h 10mph /  16.1km/h 78% 0.00in /  0mm 0 W/m2
00:34 52.4 °F /  11.3 °C 45.8 °F /  7.7 °C 30.29in /  1025.6hPa East 4mph /  6.4km/h 14mph /  22.5km/h 78% 0.00in /  0mm 0 W/m2
00:39 52.3 °F /  11.3 °C 45.7 °F /  7.6 °C 30.29in /  1025.6hPa NE 7.2mph /  11.6km/h 16mph /  25.7km/h 78% 0.00in /  0mm 0 W/m2
00:44 52.2 °F /  11.2 °C 45.5 °F /  7.5 °C 30.29in /  1025.6hPa NE 3.8mph /  6.1km/h 11mph /  17.7km/h 78% 0.00in /  0mm 0 W/m2
00:49 52.2 °F /  11.2 °C 45.5 °F /  7.5 °C 30.29in /  1025.6hPa ENE 2mph /  3.2km/h 11mph /  17.7km/h 78% 0.00in /  0mm 0 W/m2
00:54 52 °F /  11.1 °C 45.3 °F /  7.4 °C 30.29in /  1025.6hPa East 5.1mph /  8.2km/h 13mph /  20.9km/h 78% 0.00in /  0mm 0 W/m2
00:58 52 °F /  11.1 °C 45.3 °F /  7.4 °C 30.29in /  1025.6hPa NE 3.2mph /  5.1km/h 10mph /  16.1km/h 78% 0.00in /  0mm 0 W/m2
01:04 52 °F /  11.1 °C 45.3 °F /  7.4 °C 30.30in /  1026hPa East 7mph /  11.3km/h 12mph /  19.3km/h 78% 0.00in /  0mm 0 W/m2
01:09 52 °F /  11.1 °C 45.3 °F /  7.4 °C 30.29in /  1025.6hPa ENE 3.7mph /  6km/h 12mph /  19.3km/h 78% 0.00in /  0mm 0 W/m2
01:14 51.8 °F /  11 °C 45.1 °F /  7.3 °C 30.30in /  1026hPa NE 7.4mph /  11.9km/h 11mph /  17.7km/h 78% 0.00in /  0mm 0 W/m2
01:19 51.6 °F /  10.9 °C 45 °F /  7.2 °C 30.30in /  1026hPa ENE 4.5mph /  7.2km/h 14mph /  22.5km/h 78% 0.00in /  0mm 0 W/m2
01:24 51.6 °F /  10.9 °C 45 °F /  7.2 °C 30.30in /  1026hPa NE 4.8mph /  7.7km/h 10mph /  16.1km/h 78% 0.00in /  0mm 0 W/m2
01:29 51.6 °F /  10.9 °C 45 °F /  7.2 °C 30.30in /  1026hPa NE 3.2mph /  5.1km/h 8mph /  12.9km/h 78% 0.00in /  0mm 0 W/m2
01:34 51.6 °F /  10.9 °C 45 °F /  7.2 °C 30.29in /  1025.6hPa NE 4.1mph /  6.6km/h 13mph /  20.9km/h 78% 0.00in /  0mm 0 W/m2
01:39 51.6 °F /  10.9 °C 45 °F /  7.2 °C 30.29in /  1025.6hPa NE 3.3mph /  5.3km/h 8mph /  12.9km/h 78% 0.00in /  0mm 0 W/m2
01:44 51.6 °F /  10.9 °C 45 °F /  7.2 °C 30.29in /  1025.6hPa NE 2.9mph /  4.7km/h 9mph /  14.5km/h 78% 0.00in /  0mm 0 W/m2
01:49 51.6 °F /  10.9 °C 45 °F /  7.2 °C 30.29in /  1025.6hPa NE 4.5mph /  7.2km/h 13mph /  20.9km/h 78% 0.00in /  0mm 0 W/m2
01:54 51.4 °F /  10.8 °C 44.8 °F /  7.1 °C 30.29in /  1025.6hPa NE 3.4mph /  5.5km/h 10mph /  16.1km/h 78% 0.00in /  0mm 0 W/m2
01:59 51.4 °F /  10.8 °C 44.8 °F /  7.1 °C 30.29in /  1025.6hPa NNE 5.2mph /  8.4km/h 12mph /  19.3km/h 78% 0.00in /  0mm 0 W/m2
02:04 51.4 °F /  10.8 °C 44.8 °F /  7.1 °C 30.29in /  1025.6hPa ENE 2.7mph /  4.3km/h 8mph /  12.9km/h 78% 0.00in /  0mm 0 W/m2
02:09 51.4 °F /  10.8 °C 44.8 °F /  7.1 °C 30.29in /  1025.6hPa NE 2.8mph /  4.5km/h 10mph /  16.1km/h 78% 0.00in /  0mm 0 W/m2
02:14 51.3 °F /  10.7 °C 44.7 °F /  7.1 °C 30.29in /  1025.6hPa ENE 4.9mph /  7.9km/h 10mph /  16.1km/h 78% 0.00in /  0mm 0 W/m2
02:19 51.3 °F /  10.7 °C 44.6 °F /  7 °C 30.29in /  1025.6hPa ENE 4.1mph /  6.6km/h 10mph /  16.1km/h 78% 0.00in /  0mm 0 W/m2
02:24 51.3 °F /  10.7 °C 44.6 °F /  7 °C 30.29in /  1025.6hPa East 2.3mph /  3.7km/h 9mph /  14.5km/h 78% 0.00in /  0mm 0 W/m2
02:29 51.3 °F /  10.7 °C 44.6 °F /  7 °C 30.30in /  1026hPa ENE 5.2mph /  8.4km/h 11mph /  17.7km/h 78% 0.00in /  0mm 0 W/m2
02:34 51.1 °F /  10.6 °C 44.4 °F /  6.9 °C 30.30in /  1026hPa NE 6mph /  9.7km/h 12mph /  19.3km/h 78% 0.00in /  0mm 0 W/m2
02:39 51.1 °F /  10.6 °C 44.4 °F /  6.9 °C 30.30in /  1026hPa East 2.9mph /  4.7km/h 11mph /  17.7km/h 78% 0.00in /  0mm 0 W/m2
02:44 51.1 °F /  10.6 °C 44.4 °F /  6.9 °C 30.30in /  1026hPa ENE 5.8mph /  9.3km/h 11mph /  17.7km/h 78% 0.00in /  0mm 0 W/m2
02:49 51.1 °F /  10.6 °C 44.4 °F /  6.9 °C 30.30in /  1026hPa NNE 5.4mph /  8.7km/h 13mph /  20.9km/h 78% 0.00in /  0mm 0 W/m2
02:54 51 °F /  10.6 °C 44.3 °F /  6.8 °C 30.30in /  1026hPa NE 5.4mph /  8.7km/h 14mph /  22.5km/h 78% 0.00in /  0mm 0 W/m2
02:59 50.8 °F /  10.4 °C 44.2 °F /  6.8 °C 30.29in /  1025.6hPa NE 3.5mph /  5.6km/h 14mph /  22.5km/h 78% 0.00in /  0mm 0 W/m2
03:04 50.7 °F /  10.4 °C 44.1 °F /  6.7 °C 30.29in /  1025.6hPa ENE 3.5mph /  5.6km/h 14mph /  22.5km/h 78% 0.00in /  0mm 0 W/m2
03:09 50.7 °F /  10.4 °C 44.1 °F /  6.7 °C 30.29in /  1025.6hPa NE 2.9mph /  4.7km/h 14mph /  22.5km/h 78% 0.00in /  0mm 0 W/m2
03:14 50.7 °F /  10.4 °C 44.1 °F /  6.7 °C 30.29in /  1025.6hPa ENE 5.5mph /  8.9km/h 10mph /  16.1km/h 78% 0.00in /  0mm 0 W/m2
03:19 50.7 °F /  10.4 °C 44.1 °F /  6.7 °C 30.29in /  1025.6hPa ENE 4.2mph /  6.8km/h 14mph /  22.5km/h 78% 0.00in /  0mm 0 W/m2
03:24 50.7 °F /  10.4 °C 44.1 °F /  6.7 °C 30.29in /  1025.6hPa East 5.4mph /  8.7km/h 11mph /  17.7km/h 78% 0.00in /  0mm 0 W/m2
03:29 50.7 °F /  10.4 °C 44.1 °F /  6.7 °C 30.29in /  1025.6hPa NE 3.6mph /  5.8km/h 11mph /  17.7km/h 78% 0.00in /  0mm 0 W/m2
03:34 50.7 °F /  10.4 °C 44.1 °F /  6.7 °C 30.29in /  1025.6hPa NE 5.8mph /  9.3km/h 11mph /  17.7km/h 78% 0.00in /  0mm 0 W/m2
03:39 50.6 °F /  10.3 °C 44 °F /  6.7 °C 30.29in /  1025.6hPa ENE 4.2mph /  6.8km/h 15mph /  24.1km/h 78% 0.00in /  0mm 0 W/m2
03:44 50.5 °F /  10.3 °C 43.9 °F /  6.6 °C 30.29in /  1025.6hPa East 4.4mph /  7.1km/h 11mph /  17.7km/h 78% 0.00in /  0mm 0 W/m2
03:49 50.5 °F /  10.3 °C 43.9 °F /  6.6 °C 30.29in /  1025.6hPa NE 7mph /  11.3km/h 15mph /  24.1km/h 78% 0.00in /  0mm 0 W/m2
03:54 50.5 °F /  10.3 °C 43.9 °F /  6.6 °C 30.29in /  1025.6hPa ENE 4.7mph /  7.6km/h 12mph /  19.3km/h 78% 0.00in /  0mm 0 W/m2
03:59 50.5 °F /  10.3 °C 43.9 °F /  6.6 °C 30.29in /  1025.6hPa SE 2.3mph /  3.7km/h 8mph /  12.9km/h 78% 0.00in /  0mm 0 W/m2
04:04 50.6 °F /  10.3 °C 44 °F /  6.7 °C 30.29in /  1025.6hPa East 1.8mph /  2.9km/h 7mph /  11.3km/h 78% 0.00in /  0mm 0 W/m2
04:09 50.5 °F /  10.3 °C 43.9 °F /  6.6 °C 30.29in /  1025.6hPa ENE 6mph /  9.7km/h 15mph /  24.1km/h 78% 0.00in /  0mm 0 W/m2
04:14 50.5 °F /  10.3 °C 43.9 °F /  6.6 °C 30.29in /  1025.6hPa ENE 5.8mph /  9.3km/h 12mph /  19.3km/h 78% 0.00in /  0mm 0 W/m2
04:19 50.5 °F /  10.3 °C 43.8 °F /  6.6 °C 30.29in /  1025.6hPa ENE 5.2mph /  8.4km/h 13mph /  20.9km/h 78% 0.00in /  0mm 0 W/m2
04:24 50.4 °F /  10.2 °C 43.7 °F /  6.5 °C 30.29in /  1025.6hPa ENE 4.3mph /  6.9km/h 13mph /  20.9km/h 78% 0.00in /  0mm 0 W/m2
04:29 50.4 °F /  10.2 °C 43.7 °F /  6.5 °C 30.29in /  1025.6hPa NE 4.8mph /  7.7km/h 14mph /  22.5km/h 78% 0.00in /  0mm 0 W/m2
04:34 50.4 °F /  10.2 °C 43.7 °F /  6.5 °C 30.29in /  1025.6hPa ENE 5.1mph /  8.2km/h 13mph /  20.9km/h 78% 0.00in /  0mm 0 W/m2
04:39 50.4 °F /  10.2 °C 43.7 °F /  6.5 °C 30.29in /  1025.6hPa ENE 2.8mph /  4.5km/h 9mph /  14.5km/h 78% 0.00in /  0mm 0 W/m2
04:44 50.4 °F /  10.2 °C 43.7 °F /  6.5 °C 30.29in /  1025.6hPa NE 7.2mph /  11.6km/h 13mph /  20.9km/h 78% 0.00in /  0mm 0 W/m2
04:49 50.4 °F /  10.2 °C 43.7 °F /  6.5 °C 30.29in /  1025.6hPa ENE 6.2mph /  10km/h 16mph /  25.7km/h 78% 0.00in /  0mm 0 W/m2
04:54 50.4 °F /  10.2 °C 43.7 °F /  6.5 °C 30.29in /  1025.6hPa NE 2.7mph /  4.3km/h 16mph /  25.7km/h 78% 0.00in /  0mm 0 W/m2
04:59 50.4 °F /  10.2 °C 43.7 °F /  6.5 °C 30.29in /  1025.6hPa NE 2.6mph /  4.2km/h 9mph /  14.5km/h 78% 0.00in /  0mm 0 W/m2
05:04 50.4 °F /  10.2 °C 43.7 °F /  6.5 °C 30.29in /  1025.6hPa ENE 3.1mph /  5km/h 10mph /  16.1km/h 78% 0.00in /  0mm 0 W/m2
05:09 50.4 °F /  10.2 °C 43.7 °F /  6.5 °C 30.29in /  1025.6hPa ENE 1.6mph /  2.6km/h 7mph /  11.3km/h 78% 0.00in /  0mm 0 W/m2
05:14 50.4 °F /  10.2 °C 43.7 °F /  6.5 °C 30.29in /  1025.6hPa NNE 2.5mph /  4km/h 5mph /  8km/h 78% 0.00in /  0mm 0 W/m2
05:19 50.4 °F /  10.2 °C 43.7 °F /  6.5 °C 30.29in /  1025.6hPa ENE 3.3mph /  5.3km/h 9mph /  14.5km/h 78% 0.00in /  0mm 5 W/m2
05:24 50.4 °F /  10.2 °C 43.7 °F /  6.5 °C 30.29in /  1025.6hPa NNE 4.1mph /  6.6km/h 9mph /  14.5km/h 78% 0.00in /  0mm 7 W/m2
05:29 50.2 °F /  10.1 °C 43.5 °F /  6.4 °C 30.29in /  1025.6hPa NE 5.6mph /  9km/h 8mph /  12.9km/h 78% 0.00in /  0mm 9 W/m2
05:34 50 °F /  10 °C 43.3 °F /  6.3 °C 30.29in /  1025.6hPa ENE 5.6mph /  9km/h 13mph /  20.9km/h 78% 0.00in /  0mm 14 W/m2
05:39 49.8 °F /  9.9 °C 43.2 °F /  6.2 °C 30.29in /  1025.6hPa NE 5.2mph /  8.4km/h 14mph /  22.5km/h 78% 0.00in /  0mm 16 W/m2
05:44 49.8 °F /  9.9 °C 43.2 °F /  6.2 °C 30.29in /  1025.6hPa NNE 5.5mph /  8.9km/h 14mph /  22.5km/h 78% 0.00in /  0mm 19 W/m2
05:49 49.8 °F /  9.9 °C 43.2 °F /  6.2 °C 30.29in /  1025.6hPa NE 5mph /  8km/h 13mph /  20.9km/h 78% 0.00in /  0mm 19 W/m2
05:54 49.8 °F /  9.9 °C 43.2 °F /  6.2 °C 30.29in /  1025.6hPa ENE 7.4mph /  11.9km/h 13mph /  20.9km/h 78% 0.00in /  0mm 23 W/m2
05:59 50 °F /  10 °C 43.3 °F /  6.3 °C 30.29in /  1025.6hPa ENE 3.2mph /  5.1km/h 9mph /  14.5km/h 78% 0.00in /  0mm 26 W/m2
06:04 50 °F /  10 °C 43.3 °F /  6.3 °C 30.29in /  1025.6hPa ENE 4.1mph /  6.6km/h 13mph /  20.9km/h 78% 0.00in /  0mm 28 W/m2
06:09 50.1 °F /  10.1 °C 43.3 °F /  6.3 °C 30.29in /  1025.6hPa NE 4.9mph /  7.9km/h 10mph /  16.1km/h 77.6% 0.00in /  0mm 30 W/m2
06:14 50.2 °F /  10.1 °C 43.3 °F /  6.3 °C 30.29in /  1025.6hPa ENE 6.2mph /  10km/h 11mph /  17.7km/h 77.2% 0.00in /  0mm 33 W/m2
06:19 50.2 °F /  10.1 °C 43.3 °F /  6.3 °C 30.29in /  1025.6hPa NE 4.4mph /  7.1km/h 10mph /  16.1km/h 77% 0.00in /  0mm 33 W/m2
06:24 50.2 °F /  10.1 °C 43.3 °F /  6.3 °C 30.29in /  1025.6hPa NE 1.8mph /  2.9km/h 9mph /  14.5km/h 77% 0.00in /  0mm 39 W/m2
06:29 50.2 °F /  10.1 °C 43.3 °F /  6.3 °C 30.29in /  1025.6hPa ENE 5.2mph /  8.4km/h 16mph /  25.7km/h 77% 0.00in /  0mm 47 W/m2
06:34 50.2 °F /  10.1 °C 43.3 °F /  6.3 °C 30.29in /  1025.6hPa NE 4.2mph /  6.8km/h 12mph /  19.3km/h 77% 0.00in /  0mm 54 W/m2
06:39 50.2 °F /  10.1 °C 43.3 °F /  6.3 °C 30.29in /  1025.6hPa ENE 5.8mph /  9.3km/h 9mph /  14.5km/h 77% 0.00in /  0mm 60 W/m2
06:44 50.4 °F /  10.2 °C 43.3 °F /  6.3 °C 30.29in /  1025.6hPa NE 4.2mph /  6.8km/h 13mph /  20.9km/h 77% 0.00in /  0mm 62 W/m2
06:49 50.4 °F /  10.2 °C 43.3 °F /  6.3 °C 30.29in /  1025.6hPa ENE 5.8mph /  9.3km/h 13mph /  20.9km/h 77% 0.00in /  0mm 67 W/m2
06:54 50.4 °F /  10.2 °C 43.3 °F /  6.3 °C 30.29in /  1025.6hPa East 6.6mph /  10.6km/h 15mph /  24.1km/h 77% 0.00in /  0mm 74 W/m2
06:59 50.4 °F /  10.2 °C 43.3 °F /  6.3 °C 30.29in /  1025.6hPa East 5.4mph /  8.7km/h 14mph /  22.5km/h 77% 0.00in /  0mm 81 W/m2
07:04 50.4 °F /  10.2 °C 43.3 °F /  6.3 °C 30.29in /  1025.6hPa NE 6.8mph /  10.9km/h 16mph /  25.7km/h 77% 0.00in /  0mm 88 W/m2
07:09 50.5 °F /  10.3 °C 43.5 °F /  6.4 °C 30.29in /  1025.6hPa East 3.5mph /  5.6km/h 15mph /  24.1km/h 77% 0.00in /  0mm 100 W/m2
07:14 50.5 °F /  10.3 °C 43.5 °F /  6.4 °C 30.29in /  1025.6hPa ENE 6.4mph /  10.3km/h 12mph /  19.3km/h 77% 0.00in /  0mm 104 W/m2
07:19 50.5 °F /  10.3 °C 43.5 °F /  6.4 °C 30.29in /  1025.6hPa East 4mph /  6.4km/h 10mph /  16.1km/h 77% 0.00in /  0mm 109 W/m2
07:24 50.6 °F /  10.3 °C 43.6 °F /  6.4 °C 30.29in /  1025.6hPa NNE 5.2mph /  8.4km/h 15mph /  24.1km/h 77% 0.00in /  0mm 109 W/m2
07:29 50.7 °F /  10.4 °C 43.7 °F /  6.5 °C 30.29in /  1025.6hPa ENE 7.2mph /  11.6km/h 16mph /  25.7km/h 77% 0.00in /  0mm 109 W/m2
07:34 50.7 °F /  10.4 °C 43.7 °F /  6.5 °C 30.29in /  1025.6hPa ENE 5.1mph /  8.2km/h 15mph /  24.1km/h 77% 0.00in /  0mm 109 W/m2
07:39 50.7 °F /  10.4 °C 43.7 °F /  6.5 °C 30.29in /  1025.6hPa NE 5.4mph /  8.7km/h 13mph /  20.9km/h 77% 0.00in /  0mm 113 W/m2
07:44 50.7 °F /  10.4 °C 43.7 °F /  6.5 °C 30.29in /  1025.6hPa NE 2.2mph /  3.5km/h 10mph /  16.1km/h 77% 0.00in /  0mm 114 W/m2
07:49 50.8 °F /  10.4 °C 43.8 °F /  6.6 °C 30.29in /  1025.6hPa East 3.3mph /  5.3km/h 11mph /  17.7km/h 77% 0.00in /  0mm 120 W/m2
07:54 51 °F /  10.6 °C 44 °F /  6.7 °C 30.29in /  1025.6hPa East 3.3mph /  5.3km/h 14mph /  22.5km/h 77% 0.00in /  0mm 120 W/m2
07:59 51.1 °F /  10.6 °C 44.1 °F /  6.7 °C 30.29in /  1025.6hPa ENE 4.1mph /  6.6km/h 16mph /  25.7km/h 77% 0.00in /  0mm 127 W/m2
08:04 51.1 °F /  10.6 °C 44.1 °F /  6.7 °C 30.29in /  1025.6hPa East 6.4mph /  10.3km/h 13mph /  20.9km/h 77% 0.00in /  0mm 128 W/m2
08:09 51.3 °F /  10.7 °C 44.2 °F /  6.8 °C 30.29in /  1025.6hPa ENE 5.3mph /  8.5km/h 10mph /  16.1km/h 77% 0.00in /  0mm 130 W/m2
08:14 51.3 °F /  10.7 °C 44.1 °F /  6.7 °C 30.29in /  1025.6hPa ENE 6mph /  9.7km/h 17mph /  27.4km/h 76.8% 0.00in /  0mm 141 W/m2
08:19 51.3 °F /  10.7 °C 44 °F /  6.7 °C 30.29in /  1025.6hPa ENE 3.3mph /  5.3km/h 13mph /  20.9km/h 76% 0.00in /  0mm 142 W/m2
08:24 51.5 °F /  10.8 °C 44.1 °F /  6.7 °C 30.29in /  1025.6hPa ENE 2.6mph /  4.2km/h 9mph /  14.5km/h 76% 0.00in /  0mm 149 W/m2
08:29 51.6 °F /  10.9 °C 44.6 °F /  7 °C 30.29in /  1025.6hPa East 2.5mph /  4km/h 10mph /  16.1km/h 76.8% 0.00in /  0mm 151 W/m2
08:34 51.8 °F /  11 °C 44.4 °F /  6.9 °C 30.29in /  1025.6hPa ENE 3.5mph /  5.6km/h 11mph /  17.7km/h 76% 0.00in /  0mm 160 W/m2
08:39 52 °F /  11.1 °C 44.6 °F /  7 °C 30.29in /  1025.6hPa ENE 5.6mph /  9km/h 13mph /  20.9km/h 76% 0.00in /  0mm 179 W/m2
08:44 52 °F /  11.1 °C 44.6 °F /  7 °C 30.29in /  1025.6hPa ESE 5.2mph /  8.4km/h 13mph /  20.9km/h 76% 0.00in /  0mm 199 W/m2
08:49 52 °F /  11.1 °C 44.6 °F /  7 °C 30.29in /  1025.6hPa East 4.9mph /  7.9km/h 11mph /  17.7km/h 76% 0.00in /  0mm 204 W/m2
08:54 52.1 °F /  11.2 °C 44.7 °F /  7.1 °C 30.29in /  1025.6hPa East 3.5mph /  5.6km/h 11mph /  17.7km/h 76% 0.00in /  0mm 206 W/m2
08:59 52.2 °F /  11.2 °C 44.9 °F /  7.2 °C 30.29in /  1025.6hPa ENE 3.1mph /  5km/h 11mph /  17.7km/h 76% 0.00in /  0mm 239 W/m2
09:04 52.4 °F /  11.3 °C 45.1 °F /  7.3 °C 30.29in /  1025.6hPa ENE 3.3mph /  5.3km/h 7mph /  11.3km/h 76% 0.00in /  0mm 262 W/m2
09:09 52.7 °F /  11.5 °C 44.9 °F /  7.2 °C 30.29in /  1025.6hPa East 1.7mph /  2.7km/h 8mph /  12.9km/h 75% 0.00in /  0mm 281 W/m2
09:14 53 °F /  11.7 °C 45.2 °F /  7.3 °C 30.29in /  1025.6hPa East 3.4mph /  5.5km/h 12mph /  19.3km/h 75% 0.00in /  0mm 294 W/m2
09:18 53.2 °F /  11.8 °C 45.2 °F /  7.3 °C 30.29in /  1025.6hPa East 5mph /  8km/h 11mph /  17.7km/h 74.3% 0.00in /  0mm 315 W/m2
09:24 53.2 °F /  11.8 °C 45.1 °F /  7.3 °C 30.29in /  1025.6hPa ENE 6.8mph /  10.9km/h 12mph /  19.3km/h 74% 0.00in /  0mm 311 W/m2
09:29 53.4 °F /  11.9 °C 45.3 °F /  7.4 °C 30.29in /  1025.6hPa NE 4.7mph /  7.6km/h 12mph /  19.3km/h 74% 0.00in /  0mm 682 W/m2
09:34 53.7 °F /  12.1 °C 45.3 °F /  7.4 °C 30.29in /  1025.6hPa ESE 6.2mph /  10km/h 13mph /  20.9km/h 73.2% 0.00in /  0mm 722 W/m2
09:39 53.8 °F /  12.1 °C 45.3 °F /  7.4 °C 30.29in /  1025.6hPa East 7.4mph /  11.9km/h 14mph /  22.5km/h 73% 0.00in /  0mm 863 W/m2
09:44 54.1 °F /  12.3 °C 45.5 °F /  7.5 °C 30.29in /  1025.6hPa ESE 3.9mph /  6.3km/h 13mph /  20.9km/h 72.6% 0.00in /  0mm 497 W/m2
09:49 54.3 °F /  12.4 °C 45.5 °F /  7.5 °C 30.29in /  1025.6hPa ESE 5.6mph /  9km/h 11mph /  17.7km/h 72.2% 0.00in /  0mm 415 W/m2
09:54 54.3 °F /  12.4 °C 45.7 °F /  7.6 °C 30.29in /  1025.6hPa ENE 7.8mph /  12.6km/h 16mph /  25.7km/h 72.6% 0.00in /  0mm 366 W/m2
09:59 54.3 °F /  12.4 °C 45.7 °F /  7.6 °C 30.29in /  1025.6hPa ENE 5.2mph /  8.4km/h 16mph /  25.7km/h 72.4% 0.00in /  0mm 380 W/m2
10:04 54.5 °F /  12.5 °C 45.7 °F /  7.6 °C 30.29in /  1025.6hPa NE 4.4mph /  7.1km/h 12mph /  19.3km/h 72% 0.00in /  0mm 404 W/m2
10:09 54.7 °F /  12.6 °C 45.9 °F /  7.7 °C 30.29in /  1025.6hPa NE 3.7mph /  6km/h 10mph /  16.1km/h 72% 0.00in /  0mm 380 W/m2
10:14 54.7 °F /  12.6 °C 45.9 °F /  7.7 °C 30.29in /  1025.6hPa NNE 4.7mph /  7.6km/h 12mph /  19.3km/h 72% 0.00in /  0mm 374 W/m2
10:19 54.6 °F /  12.6 °C 45.8 °F /  7.7 °C 30.29in /  1025.6hPa NE 7mph /  11.3km/h 15mph /  24.1km/h 72% 0.00in /  0mm 388 W/m2
10:24 54.7 °F /  12.6 °C 45.9 °F /  7.7 °C 30.29in /  1025.6hPa ENE 5.3mph /  8.5km/h 12mph /  19.3km/h 72% 0.00in /  0mm 482 W/m2
10:29 54.9 °F /  12.7 °C 45.8 °F /  7.7 °C 30.29in /  1025.6hPa ENE 5.3mph /  8.5km/h 14mph /  22.5km/h 71.4% 0.00in /  0mm 847 W/m2
10:34 55.5 °F /  13.1 °C 46.2 °F /  7.9 °C 30.29in /  1025.6hPa East 8mph /  12.9km/h 17mph /  27.4km/h 70.8% 0.00in /  0mm 875 W/m2
10:39 56.1 °F /  13.4 °C 46.2 °F /  7.9 °C 30.29in /  1025.6hPa East 5.6mph /  9km/h 14mph /  22.5km/h 69.6% 0.00in /  0mm 803 W/m2
10:44 56.4 °F /  13.6 °C 46.5 °F /  8.1 °C 30.29in /  1025.6hPa ESE 6mph /  9.7km/h 13mph /  20.9km/h 69.6% 0.00in /  0mm 793 W/m2
10:49 56.3 °F /  13.5 °C 46.4 °F /  8 °C 30.29in /  1025.6hPa SE 3.8mph /  6.1km/h 13mph /  20.9km/h 69.4% 0.00in /  0mm 812 W/m2
10:54 56.7 °F /  13.7 °C 46.6 °F /  8.1 °C 30.29in /  1025.6hPa ESE 8mph /  12.9km/h 16mph /  25.7km/h 69% 0.00in /  0mm 823 W/m2
10:59 57.3 °F /  14.1 °C 47 °F /  8.3 °C 30.29in /  1025.6hPa ESE 5.2mph /  8.4km/h 15mph /  24.1km/h 68.6% 0.00in /  0mm 814 W/m2
11:04 57.4 °F /  14.1 °C 46.6 °F /  8.1 °C 30.29in /  1025.6hPa ESE 8.1mph /  13km/h 18mph /  29km/h 67% 0.00in /  0mm 819 W/m2
11:09 58 °F /  14.4 °C 47 °F /  8.3 °C 30.29in /  1025.6hPa ENE 8.4mph /  13.5km/h 16mph /  25.7km/h 67% 0.00in /  0mm 835 W/m2
11:14 58.5 °F /  14.7 °C 47.6 °F /  8.7 °C 30.29in /  1025.6hPa ENE 6.4mph /  10.3km/h 18mph /  29km/h 67% 0.00in /  0mm 861 W/m2
11:19 59.3 °F /  15.2 °C 47.8 °F /  8.8 °C 30.29in /  1025.6hPa East 8mph /  12.9km/h 15mph /  24.1km/h 65.6% 0.00in /  0mm 870 W/m2
11:24 59.4 °F /  15.2 °C 47.5 °F /  8.6 °C 30.29in /  1025.6hPa ESE 5.2mph /  8.4km/h 16mph /  25.7km/h 64.5% 0.00in /  0mm 884 W/m2
11:29 59.5 °F /  15.3 °C 47.8 °F /  8.8 °C 30.29in /  1025.6hPa ENE 9mph /  14.5km/h 17mph /  27.4km/h 65% 0.00in /  0mm 891 W/m2
11:34 59.5 °F /  15.3 °C 47.7 °F /  8.7 °C 30.29in /  1025.6hPa ESE 5.1mph /  8.2km/h 12mph /  19.3km/h 64.8% 0.00in /  0mm 988 W/m2
11:39 59.1 °F /  15.1 °C 47.4 °F /  8.6 °C 30.29in /  1025.6hPa East 6.4mph /  10.3km/h 14mph /  22.5km/h 65% 0.00in /  0mm 988 W/m2
11:44 59.1 °F /  15.1 °C 47.6 °F /  8.7 °C 30.29in /  1025.6hPa East 6.2mph /  10km/h 13mph /  20.9km/h 65.6% 0.00in /  0mm 1011 W/m2
11:49 59.4 °F /  15.2 °C 47.7 °F /  8.7 °C 30.29in /  1025.6hPa NNE 7.4mph /  11.9km/h 15mph /  24.1km/h 65% 0.00in /  0mm 1011 W/m2
11:54 58.8 °F /  14.9 °C 47.4 °F /  8.6 °C 30.29in /  1025.6hPa NE 8.8mph /  14.2km/h 16mph /  25.7km/h 65.6% 0.00in /  0mm 508 W/m2
11:59 59.2 °F /  15.1 °C 47.8 °F /  8.8 °C 30.29in /  1025.6hPa ENE 5.7mph /  9.2km/h 15mph /  24.1km/h 66% 0.00in /  0mm 962 W/m2
12:04 59.2 °F /  15.1 °C 47.6 °F /  8.7 °C 30.29in /  1025.6hPa NE 3.7mph /  6km/h 13mph /  20.9km/h 65.2% 0.00in /  0mm 962 W/m2
12:09 59.7 °F /  15.4 °C 47.9 °F /  8.8 °C 30.28in /  1025.3hPa East 5.1mph /  8.2km/h 14mph /  22.5km/h 65% 0.00in /  0mm 868 W/m2
12:14 60.5 °F /  15.8 °C 48.1 °F /  8.9 °C 30.28in /  1025.3hPa East 7.6mph /  12.2km/h 14mph /  22.5km/h 63.6% 0.00in /  0mm 854 W/m2
12:19 59.9 °F /  15.5 °C 47.2 °F /  8.4 °C 30.28in /  1025.3hPa ESE 4.2mph /  6.8km/h 11mph /  17.7km/h 63% 0.00in /  0mm 893 W/m2
12:24 60.4 °F /  15.8 °C 48.7 °F /  9.3 °C 30.28in /  1025.3hPa NE 5.2mph /  8.4km/h 12mph /  19.3km/h 65.3% 0.00in /  0mm 962 W/m2
12:29 61.4 °F /  16.3 °C 48.3 °F /  9.1 °C 30.28in /  1025.3hPa NE 5.8mph /  9.3km/h 14mph /  22.5km/h 62.2% 0.00in /  0mm 881 W/m2
12:34 61.6 °F /  16.4 °C 48.5 °F /  9.2 °C 30.28in /  1025.3hPa NE 7.6mph /  12.2km/h 17mph /  27.4km/h 62% 0.00in /  0mm 865 W/m2
12:39 61.9 °F /  16.6 °C 48.6 °F /  9.2 °C 30.28in /  1025.3hPa East 6mph /  9.7km/h 17mph /  27.4km/h 61.8% 0.00in /  0mm 872 W/m2
12:44 62.2 °F /  16.8 °C 48.8 °F /  9.3 °C 30.28in /  1025.3hPa East 7.8mph /  12.6km/h 19mph /  30.6km/h 61.4% 0.00in /  0mm 900 W/m2
12:49 62 °F /  16.7 °C 48.5 °F /  9.2 °C 30.28in /  1025.3hPa East 6.1mph /  9.8km/h 19mph /  30.6km/h 61.4% 0.00in /  0mm 872 W/m2
12:54 62.1 °F /  16.7 °C 48.9 °F /  9.4 °C 30.28in /  1025.3hPa NE 4.1mph /  6.6km/h 11mph /  17.7km/h 61.8% 0.00in /  0mm 891 W/m2
12:59 62.7 °F /  17.1 °C 49.3 °F /  9.6 °C 30.28in /  1025.3hPa NNE 5.7mph /  9.2km/h 11mph /  17.7km/h 61.6% 0.00in /  0mm 925 W/m2
13:04 63.3 °F /  17.4 °C 49.6 °F /  9.8 °C 30.28in /  1025.3hPa East 4mph /  6.4km/h 11mph /  17.7km/h 61% 0.00in /  0mm 909 W/m2
13:09 63.3 °F /  17.4 °C 49.2 °F /  9.6 °C 30.28in /  1025.3hPa ENE 6.1mph /  9.8km/h 11mph /  17.7km/h 59.8% 0.00in /  0mm 896 W/m2
13:14 62.4 °F /  16.9 °C 48.5 °F /  9.2 °C 30.27in /  1024.9hPa ESE 4.2mph /  6.8km/h 14mph /  22.5km/h 60.4% 0.00in /  0mm 879 W/m2
13:19 62.2 °F /  16.8 °C 48.7 °F /  9.3 °C 30.27in /  1024.9hPa ENE 5mph /  8km/h 14mph /  22.5km/h 61.2% 0.00in /  0mm 898 W/m2
13:24 62.8 °F /  17.1 °C 49.2 °F /  9.6 °C 30.27in /  1024.9hPa NE 4.9mph /  7.9km/h 16mph /  25.7km/h 61.2% 0.00in /  0mm 898 W/m2
13:29 62.7 °F /  17.1 °C 49.1 °F /  9.5 °C 30.27in /  1024.9hPa NE 6.4mph /  10.3km/h 13mph /  20.9km/h 61.2% 0.00in /  0mm 870 W/m2
13:34 62.8 °F /  17.1 °C 49.1 °F /  9.5 °C 30.27in /  1024.9hPa NE 6.5mph /  10.5km/h 11mph /  17.7km/h 61% 0.00in /  0mm 870 W/m2
13:39 62.9 °F /  17.2 °C 49.6 °F /  9.8 °C 30.27in /  1024.9hPa NE 7.2mph /  11.6km/h 16mph /  25.7km/h 61.8% 0.00in /  0mm 877 W/m2
13:44 63 °F /  17.2 °C 49 °F /  9.4 °C 30.27in /  1024.9hPa NE 6.7mph /  10.8km/h 13mph /  20.9km/h 60.2% 0.00in /  0mm 868 W/m2
13:49 63.2 °F /  17.3 °C 49.1 °F /  9.5 °C 30.27in /  1024.9hPa ENE 6.8mph /  10.9km/h 15mph /  24.1km/h 60% 0.00in /  0mm 865 W/m2
13:54 63 °F /  17.2 °C 49.4 °F /  9.7 °C 30.27in /  1024.9hPa NE 5.8mph /  9.3km/h 15mph /  24.1km/h 61% 0.00in /  0mm 861 W/m2
13:59 63.1 °F /  17.3 °C 49.4 °F /  9.7 °C 30.27in /  1024.9hPa NE 7.2mph /  11.6km/h 15mph /  24.1km/h 61% 0.00in /  0mm 861 W/m2
14:04 64 °F /  17.8 °C 49.7 °F /  9.8 °C 30.27in /  1024.9hPa NE 7mph /  11.3km/h 14mph /  22.5km/h 59.8% 0.00in /  0mm 854 W/m2
14:09 64.5 °F /  18.1 °C 49.6 °F /  9.8 °C 30.27in /  1024.9hPa ESE 6.4mph /  10.3km/h 15mph /  24.1km/h 58.4% 0.00in /  0mm 856 W/m2
14:14 65.1 °F /  18.4 °C 50 °F /  10 °C 30.27in /  1024.9hPa ENE 5mph /  8km/h 18mph /  29km/h 58% 0.00in /  0mm 854 W/m2
14:19 65.7 °F /  18.7 °C 49.6 °F /  9.8 °C 30.27in /  1024.9hPa ENE 5.1mph /  8.2km/h 19mph /  30.6km/h 56.2% 0.00in /  0mm 851 W/m2
14:24 65.2 °F /  18.4 °C 49.2 °F /  9.6 °C 30.27in /  1024.9hPa ENE 6mph /  9.7km/h 14mph /  22.5km/h 56.2% 0.00in /  0mm 844 W/m2
14:29 65.4 °F /  18.6 °C 49.5 °F /  9.7 °C 30.27in /  1024.9hPa East 7mph /  11.3km/h 14mph /  22.5km/h 56.6% 0.00in /  0mm 840 W/m2
14:34 65.9 °F /  18.8 °C 50.2 °F /  10.1 °C 30.26in /  1024.6hPa ENE 3.7mph /  6km/h 14mph /  22.5km/h 56.8% 0.00in /  0mm 835 W/m2
14:39 65.9 °F /  18.8 °C 50.1 °F /  10.1 °C 30.26in /  1024.6hPa NE 5.5mph /  8.9km/h 14mph /  22.5km/h 56.8% 0.00in /  0mm 830 W/m2
14:44 66 °F /  18.9 °C 50.3 °F /  10.2 °C 30.26in /  1024.6hPa NE 7.2mph /  11.6km/h 20mph /  32.2km/h 56.8% 0.00in /  0mm 826 W/m2
14:49 65.8 °F /  18.8 °C 50.1 °F /  10.1 °C 30.26in /  1024.6hPa NNE 5.6mph /  9km/h 20mph /  32.2km/h 56.8% 0.00in /  0mm 823 W/m2
14:54 65.8 °F /  18.8 °C 50.4 °F /  10.2 °C 30.26in /  1024.6hPa East 7.6mph /  12.2km/h 17mph /  27.4km/h 57.4% 0.00in /  0mm 812 W/m2
14:59 65.9 °F /  18.8 °C 50.2 °F /  10.1 °C 30.26in /  1024.6hPa East 5.4mph /  8.7km/h 17mph /  27.4km/h 56.8% 0.00in /  0mm 810 W/m2
15:04 65.7 °F /  18.7 °C 49.8 °F /  9.9 °C 30.26in /  1024.6hPa ESE 5.6mph /  9km/h 14mph /  22.5km/h 56.4% 0.00in /  0mm 805 W/m2
15:09 65.9 °F /  18.8 °C 50.3 °F /  10.2 °C 30.26in /  1024.6hPa ESE 4.7mph /  7.6km/h 14mph /  22.5km/h 57% 0.00in /  0mm 796 W/m2
15:14 65.9 °F /  18.8 °C 50 °F /  10 °C 30.26in /  1024.6hPa East 6.7mph /  10.8km/h 13mph /  20.9km/h 56.5% 0.00in /  0mm 786 W/m2
15:19 66.2 °F /  19 °C 50.7 °F /  10.4 °C 30.26in /  1024.6hPa East 5.5mph /  8.9km/h 14mph /  22.5km/h 57.4% 0.00in /  0mm 779 W/m2
15:24 67.2 °F /  19.6 °C 50.8 °F /  10.4 °C 30.25in /  1024.3hPa East 3.3mph /  5.3km/h 14mph /  22.5km/h 55.6% 0.00in /  0mm 770 W/m2
15:29 68.3 °F /  20.2 °C 51.2 °F /  10.7 °C 30.25in /  1024.3hPa NE 2.9mph /  4.7km/h 10mph /  16.1km/h 54.4% 0.00in /  0mm 766 W/m2
15:34 68.5 °F /  20.3 °C 51.2 °F /  10.7 °C 30.25in /  1024.3hPa ENE 7.2mph /  11.6km/h 11mph /  17.7km/h 54% 0.00in /  0mm 758 W/m2
15:39 69 °F /  20.6 °C 51.5 °F /  10.8 °C 30.25in /  1024.3hPa NE 4.3mph /  6.9km/h 13mph /  20.9km/h 53.6% 0.00in /  0mm 752 W/m2
15:44 69.6 °F /  20.9 °C 51.5 °F /  10.8 °C 30.25in /  1024.3hPa ENE 7.2mph /  11.6km/h 13mph /  20.9km/h 52.4% 0.00in /  0mm 742 W/m2
15:49 69.2 °F /  20.7 °C 50.9 °F /  10.5 °C 30.25in /  1024.3hPa ENE 5.6mph /  9km/h 11mph /  17.7km/h 52.2% 0.00in /  0mm 735 W/m2
15:54 68.8 °F /  20.4 °C 50.5 °F /  10.3 °C 30.25in /  1024.3hPa ESE 8.6mph /  13.8km/h 14mph /  22.5km/h 52.2% 0.00in /  0mm 728 W/m2
15:59 67.9 °F /  19.9 °C 50.5 °F /  10.3 °C 30.24in /  1023.9hPa East 7.7mph /  12.4km/h 12mph /  19.3km/h 53.8% 0.00in /  0mm 719 W/m2
16:04 68 °F /  20 °C 50.9 °F /  10.5 °C 30.24in /  1023.9hPa ESE 3.7mph /  6km/h 13mph /  20.9km/h 54.4% 0.00in /  0mm 708 W/m2
16:09 68.6 °F /  20.3 °C 51.3 °F /  10.7 °C 30.24in /  1023.9hPa ENE 6.6mph /  10.6km/h 11mph /  17.7km/h 54% 0.00in /  0mm 698 W/m2
16:14 69.3 °F /  20.7 °C 51.8 °F /  11 °C 30.24in /  1023.9hPa ENE 4.8mph /  7.7km/h 11mph /  17.7km/h 53.6% 0.00in /  0mm 686 W/m2
16:19 69.9 °F /  21.1 °C 52 °F /  11.1 °C 30.24in /  1023.9hPa NE 6.7mph /  10.8km/h 11mph /  17.7km/h 52.8% 0.00in /  0mm 679 W/m2
16:24 69.5 °F /  20.8 °C 51 °F /  10.6 °C 30.24in /  1023.9hPa East 5.4mph /  8.7km/h 16mph /  25.7km/h 51.8% 0.00in /  0mm 677 W/m2
16:29 69.3 °F /  20.7 °C 50.9 °F /  10.5 °C 30.24in /  1023.9hPa NE 7mph /  11.3km/h 14mph /  22.5km/h 52% 0.00in /  0mm 663 W/m2
16:34 69.1 °F /  20.6 °C 50.7 °F /  10.4 °C 30.24in /  1023.9hPa East 4.3mph /  6.9km/h 14mph /  22.5km/h 52% 0.00in /  0mm 652 W/m2
16:39 69.4 °F /  20.8 °C 51 °F /  10.6 °C 30.23in /  1023.6hPa East 5.6mph /  9km/h 12mph /  19.3km/h 52% 0.00in /  0mm 638 W/m2
16:44 69.1 °F /  20.6 °C 50.5 °F /  10.3 °C 30.23in /  1023.6hPa ESE 7.1mph /  11.4km/h 12mph /  19.3km/h 51.6% 0.00in /  0mm 631 W/m2
16:49 68.5 °F /  20.3 °C 50.6 °F /  10.3 °C 30.23in /  1023.6hPa ENE 6.6mph /  10.6km/h 10mph /  16.1km/h 52.8% 0.00in /  0mm 619 W/m2
16:54 68.9 °F /  20.5 °C 51.1 °F /  10.6 °C 30.23in /  1023.6hPa ENE 5mph /  8km/h 11mph /  17.7km/h 53% 0.00in /  0mm 608 W/m2
16:59 69.4 °F /  20.8 °C 51.2 °F /  10.7 °C 30.23in /  1023.6hPa NE 6mph /  9.7km/h 15mph /  24.1km/h 52.4% 0.00in /  0mm 596 W/m2
17:04 69.3 °F /  20.7 °C 51.5 °F /  10.8 °C 30.23in /  1023.6hPa ENE 4mph /  6.4km/h 9mph /  14.5km/h 53% 0.00in /  0mm 582 W/m2
17:09 68.5 °F /  20.3 °C 51.3 °F /  10.7 °C 30.23in /  1023.6hPa East 5.9mph /  9.5km/h 12mph /  19.3km/h 54% 0.00in /  0mm 573 W/m2
17:14 68.5 °F /  20.3 °C 51.3 °F /  10.7 °C 30.23in /  1023.6hPa NE 5.5mph /  8.9km/h 12mph /  19.3km/h 54.2% 0.00in /  0mm 557 W/m2
17:19 69.2 °F /  20.7 °C 51.9 °F /  11.1 °C 30.23in /  1023.6hPa NE 3.2mph /  5.1km/h 9mph /  14.5km/h 54% 0.00in /  0mm 545 W/m2
17:24 70 °F /  21.1 °C 52.1 °F /  11.2 °C 30.23in /  1023.6hPa ENE 6.1mph /  9.8km/h 10mph /  16.1km/h 53% 0.00in /  0mm 533 W/m2
17:29 69.9 °F /  21.1 °C 51.4 °F /  10.8 °C 30.22in /  1023.2hPa ENE 5.4mph /  8.7km/h 12mph /  19.3km/h 51.8% 0.00in /  0mm 520 W/m2
17:34 69.5 °F /  20.8 °C 51.2 °F /  10.7 °C 30.22in /  1023.2hPa East 6.2mph /  10km/h 14mph /  22.5km/h 52% 0.00in /  0mm 512 W/m2
17:39 69.3 °F /  20.7 °C 50.9 °F /  10.5 °C 30.22in /  1023.2hPa ENE 4.9mph /  7.9km/h 13mph /  20.9km/h 52% 0.00in /  0mm 496 W/m2
17:44 69.4 °F /  20.8 °C 51.1 °F /  10.6 °C 30.22in /  1023.2hPa NE 5mph /  8km/h 11mph /  17.7km/h 52.2% 0.00in /  0mm 480 W/m2
17:49 69.2 °F /  20.7 °C 50.8 °F /  10.4 °C 30.22in /  1023.2hPa East 4.5mph /  7.2km/h 16mph /  25.7km/h 52% 0.00in /  0mm 473 W/m2
17:54 69 °F /  20.6 °C 51.2 °F /  10.7 °C 30.22in /  1023.2hPa ENE 5.6mph /  9km/h 13mph /  20.9km/h 53% 0.00in /  0mm 455 W/m2
17:59 69.1 °F /  20.6 °C 50.8 °F /  10.4 °C 30.22in /  1023.2hPa ENE 3.7mph /  6km/h 12mph /  19.3km/h 52.2% 0.00in /  0mm 443 W/m2
18:04 69.1 °F /  20.6 °C 50.7 °F /  10.4 °C 30.22in /  1023.2hPa NE 8mph /  12.9km/h 14mph /  22.5km/h 52% 0.00in /  0mm 431 W/m2
18:09 68.8 °F /  20.4 °C 50.5 °F /  10.3 °C 30.22in /  1023.2hPa ENE 5mph /  8km/h 13mph /  20.9km/h 52% 0.00in /  0mm 420 W/m2
18:14 69 °F /  20.6 °C 50.3 °F /  10.2 °C 30.22in /  1023.2hPa ENE 5.9mph /  9.5km/h 12mph /  19.3km/h 51.4% 0.00in /  0mm 406 W/m2
18:19 68.8 °F /  20.4 °C 49.9 °F /  9.9 °C 30.22in /  1023.2hPa NE 3.7mph /  6km/h 15mph /  24.1km/h 51% 0.00in /  0mm 396 W/m2
18:24 68.6 °F /  20.3 °C 49.7 °F /  9.8 °C 30.22in /  1023.2hPa ENE 5.2mph /  8.4km/h 11mph /  17.7km/h 51% 0.00in /  0mm 378 W/m2
18:29 68.5 °F /  20.3 °C 50.2 °F /  10.1 °C 30.22in /  1023.2hPa NNE 3.3mph /  5.3km/h 11mph /  17.7km/h 52% 0.00in /  0mm 367 W/m2
18:34 68.4 °F /  20.2 °C 50.1 °F /  10.1 °C 30.22in /  1023.2hPa ENE 6.4mph /  10.3km/h 14mph /  22.5km/h 52% 0.00in /  0mm 355 W/m2
18:39 68.5 °F /  20.3 °C 49.9 °F /  9.9 °C 30.22in /  1023.2hPa ENE 6.4mph /  10.3km/h 14mph /  22.5km/h 51.6% 0.00in /  0mm 339 W/m2
18:44 68.2 °F /  20.1 °C 49.9 °F /  9.9 °C 30.22in /  1023.2hPa NE 6.2mph /  10km/h 13mph /  20.9km/h 52.2% 0.00in /  0mm 327 W/m2
18:49 68.3 °F /  20.2 °C 49.9 °F /  9.9 °C 30.22in /  1023.2hPa NE 3.7mph /  6km/h 10mph /  16.1km/h 52% 0.00in /  0mm 311 W/m2
18:54 68.4 °F /  20.2 °C 50.1 °F /  10.1 °C 30.22in /  1023.2hPa East 3.1mph /  5km/h 8mph /  12.9km/h 52.2% 0.00in /  0mm 297 W/m2
18:59 68.3 °F /  20.2 °C 50 °F /  10 °C 30.22in /  1023.2hPa East 5.8mph /  9.3km/h 9mph /  14.5km/h 52.2% 0.00in /  0mm 285 W/m2
19:04 68.1 °F /  20.1 °C 49.7 °F /  9.8 °C 30.22in /  1023.2hPa NE 4.9mph /  7.9km/h 10mph /  16.1km/h 52% 0.00in /  0mm 274 W/m2
19:09 67.8 °F /  19.9 °C 49.2 °F /  9.6 °C 30.22in /  1023.2hPa ENE 7.6mph /  12.2km/h 14mph /  22.5km/h 51.2% 0.00in /  0mm 264 W/m2
19:14 67.6 °F /  19.8 °C 48.8 °F /  9.3 °C 30.22in /  1023.2hPa East 6.2mph /  10km/h 14mph /  22.5km/h 51% 0.00in /  0mm 248 W/m2
19:19 67.2 °F /  19.6 °C 48.6 °F /  9.2 °C 30.22in /  1023.2hPa ENE 4mph /  6.4km/h 13mph /  20.9km/h 51.2% 0.00in /  0mm 237 W/m2
19:24 67 °F /  19.4 °C 48.7 °F /  9.3 °C 30.22in /  1023.2hPa ENE 5.1mph /  8.2km/h 12mph /  19.3km/h 51.8% 0.00in /  0mm 221 W/m2
19:29 67 °F /  19.4 °C 48.8 °F /  9.3 °C 30.22in /  1023.2hPa ENE 3.5mph /  5.6km/h 11mph /  17.7km/h 52% 0.00in /  0mm 204 W/m2
19:34 67.1 °F /  19.5 °C 48.9 °F /  9.4 °C 30.22in /  1023.2hPa East 4.2mph /  6.8km/h 14mph /  22.5km/h 52% 0.00in /  0mm 188 W/m2
19:39 67.1 °F /  19.5 °C 48.9 °F /  9.4 °C 30.22in /  1023.2hPa ENE 4.3mph /  6.9km/h 14mph /  22.5km/h 52% 0.00in /  0mm 174 W/m2
19:44 67.3 °F /  19.6 °C 49.1 °F /  9.5 °C 30.22in /  1023.2hPa ENE 2.9mph /  4.7km/h 9mph /  14.5km/h 52% 0.00in /  0mm 156 W/m2
19:49 67.2 °F /  19.6 °C 49.3 °F /  9.6 °C 30.22in /  1023.2hPa ENE 4mph /  6.4km/h 8mph /  12.9km/h 52.6% 0.00in /  0mm 142 W/m2
19:54 66.8 °F /  19.3 °C 49.2 °F /  9.6 °C 30.22in /  1023.2hPa ENE 5.7mph /  9.2km/h 12mph /  19.3km/h 53% 0.00in /  0mm 128 W/m2
19:59 66.2 °F /  19 °C 48.7 °F /  9.3 °C 30.22in /  1023.2hPa East 3.4mph /  5.5km/h 12mph /  19.3km/h 53.2% 0.00in /  0mm 116 W/m2
20:04 65.7 °F /  18.7 °C 48.7 °F /  9.3 °C 30.22in /  1023.2hPa NE 2.9mph /  4.7km/h 12mph /  19.3km/h 54.2% 0.00in /  0mm 104 W/m2
20:09 65.4 °F /  18.6 °C 48.8 °F /  9.3 °C 30.22in /  1023.2hPa NE 5.1mph /  8.2km/h 15mph /  24.1km/h 55% 0.00in /  0mm 91 W/m2
20:14 65.1 °F /  18.4 °C 48.8 °F /  9.3 °C 30.22in /  1023.2hPa NE 4.7mph /  7.6km/h 11mph /  17.7km/h 55.4% 0.00in /  0mm 79 W/m2
20:19 65.1 °F /  18.4 °C 49.1 °F /  9.5 °C 30.22in /  1023.2hPa East 4.2mph /  6.8km/h 9mph /  14.5km/h 56% 0.00in /  0mm 69 W/m2
20:24 64.7 °F /  18.2 °C 48.9 °F /  9.4 °C 30.22in /  1023.2hPa NE 4.8mph /  7.7km/h 11mph /  17.7km/h 56.6% 0.00in /  0mm 56 W/m2
20:29 64.4 °F /  18 °C 48.8 °F /  9.3 °C 30.22in /  1023.2hPa ENE 2.4mph /  3.9km/h 9mph /  14.5km/h 57% 0.00in /  0mm 47 W/m2
20:34 64 °F /  17.8 °C 48.8 °F /  9.3 °C 30.22in /  1023.2hPa NE 3.3mph /  5.3km/h 8mph /  12.9km/h 57.8% 0.00in /  0mm 39 W/m2
20:39 63.7 °F /  17.6 °C 48.9 °F /  9.4 °C 30.22in /  1023.2hPa ENE 2.8mph /  4.5km/h 8mph /  12.9km/h 58.6% 0.00in /  0mm 30 W/m2
20:44 63.1 °F /  17.3 °C 48.7 °F /  9.3 °C 30.22in /  1023.2hPa NE 5.8mph /  9.3km/h 13mph /  20.9km/h 59.2% 0.00in /  0mm 25 W/m2
20:49 62.6 °F /  17 °C 48.6 °F /  9.2 °C 30.23in /  1023.6hPa NE 3.9mph /  6.3km/h 12mph /  19.3km/h 60% 0.00in /  0mm 19 W/m2
20:54 62.3 °F /  16.8 °C 48.5 °F /  9.2 °C 30.23in /  1023.6hPa East 2.5mph /  4km/h 7mph /  11.3km/h 60.6% 0.00in /  0mm 16 W/m2
20:59 62 °F /  16.7 °C 48.5 °F /  9.2 °C 30.23in /  1023.6hPa ESE 1.5mph /  2.4km/h 7mph /  11.3km/h 61.4% 0.00in /  0mm 14 W/m2
21:04 61.8 °F /  16.6 °C 48.6 °F /  9.2 °C 30.23in /  1023.6hPa ENE 2.5mph /  4km/h 8mph /  12.9km/h 62% 0.00in /  0mm 12 W/m2
21:09 61.3 °F /  16.3 °C 48.3 °F /  9.1 °C 30.23in /  1023.6hPa ENE 4.9mph /  7.9km/h 9mph /  14.5km/h 62.2% 0.00in /  0mm 9 W/m2
21:14 60.9 °F /  16.1 °C 48.2 °F /  9 °C 30.23in /  1023.6hPa ENE 4.1mph /  6.6km/h 8mph /  12.9km/h 63% 0.00in /  0mm 7 W/m2
21:19 60.3 °F /  15.7 °C 48 °F /  8.9 °C 30.24in /  1023.9hPa NE 2.8mph /  4.5km/h 9mph /  14.5km/h 63.8% 0.00in /  0mm 5 W/m2
21:24 59.9 °F /  15.5 °C 47.8 °F /  8.8 °C 30.24in /  1023.9hPa ENE 3.7mph /  6km/h 10mph /  16.1km/h 64.2% 0.00in /  0mm 0 W/m2
21:29 59.6 °F /  15.3 °C 47.9 °F /  8.8 °C 30.24in /  1023.9hPa ENE 1.6mph /  2.6km/h 3mph /  4.8km/h 65% 0.00in /  0mm 0 W/m2
21:34 59.3 °F /  15.2 °C 48 °F /  8.9 °C 30.24in /  1023.9hPa ENE 1.4mph /  2.3km/h 7mph /  11.3km/h 66% 0.00in /  0mm 0 W/m2
21:39 59.1 °F /  15.1 °C 47.9 °F /  8.8 °C 30.24in /  1023.9hPa ENE 3.3mph /  5.3km/h 8mph /  12.9km/h 66.4% 0.00in /  0mm 0 W/m2
21:44 58.8 °F /  14.9 °C 47.8 °F /  8.8 °C 30.24in /  1023.9hPa ENE 0.5mph /  0.8km/h 3mph /  4.8km/h 67% 0.00in /  0mm 0 W/m2
21:49 58.6 °F /  14.8 °C 47.7 °F /  8.7 °C 30.24in /  1023.9hPa NE 4.1mph /  6.6km/h 12mph /  19.3km/h 67% 0.00in /  0mm 0 W/m2
21:54 58.3 °F /  14.6 °C 47.3 °F /  8.5 °C 30.24in /  1023.9hPa ENE 4.8mph /  7.7km/h 11mph /  17.7km/h 67% 0.00in /  0mm 0 W/m2
21:59 57.8 °F /  14.3 °C 47 °F /  8.3 °C 30.24in /  1023.9hPa NE 4.8mph /  7.7km/h 11mph /  17.7km/h 67.2% 0.00in /  0mm 0 W/m2
22:04 57.6 °F /  14.2 °C 47.1 °F /  8.4 °C 30.25in /  1024.3hPa ENE 2.3mph /  3.7km/h 6mph /  9.7km/h 68% 0.00in /  0mm 0 W/m2
22:09 57.2 °F /  14 °C 46.8 °F /  8.2 °C 30.25in /  1024.3hPa ENE 3.3mph /  5.3km/h 8mph /  12.9km/h 68% 0.00in /  0mm 0 W/m2
22:14 56.9 °F /  13.8 °C 46.8 °F /  8.2 °C 30.25in /  1024.3hPa NE 4.8mph /  7.7km/h 12mph /  19.3km/h 69% 0.00in /  0mm 0 W/m2
22:19 56.6 °F /  13.7 °C 46.5 °F /  8.1 °C 30.25in /  1024.3hPa NE 4.7mph /  7.6km/h 12mph /  19.3km/h 69% 0.00in /  0mm 0 W/m2
22:24 56.1 °F /  13.4 °C 46 °F /  7.8 °C 30.25in /  1024.3hPa ENE 6.6mph /  10.6km/h 11mph /  17.7km/h 69% 0.00in /  0mm 0 W/m2
22:29 55.8 °F /  13.2 °C 46.1 °F /  7.8 °C 30.25in /  1024.3hPa ENE 4.8mph /  7.7km/h 11mph /  17.7km/h 70% 0.00in /  0mm 0 W/m2
22:34 55.6 °F /  13.1 °C 46.1 °F /  7.8 °C 30.25in /  1024.3hPa ENE 4.4mph /  7.1km/h 15mph /  24.1km/h 70.2% 0.00in /  0mm 0 W/m2
22:39 55.2 °F /  12.9 °C 46 °F /  7.8 °C 30.25in /  1024.3hPa ENE 4.9mph /  7.9km/h 13mph /  20.9km/h 71% 0.00in /  0mm 0 W/m2
22:44 55 °F /  12.8 °C 45.9 °F /  7.7 °C 30.25in /  1024.3hPa ENE 5.4mph /  8.7km/h 13mph /  20.9km/h 71% 0.00in /  0mm 0 W/m2
22:49 54.8 °F /  12.7 °C 45.8 °F /  7.7 °C 30.25in /  1024.3hPa ENE 7.6mph /  12.2km/h 11mph /  17.7km/h 71.4% 0.00in /  0mm 0 W/m2
22:54 54.6 °F /  12.6 °C 45.7 °F /  7.6 °C 30.25in /  1024.3hPa ENE 5.9mph /  9.5km/h 10mph /  16.1km/h 71.8% 0.00in /  0mm 0 W/m2
22:59 54.3 °F /  12.4 °C 45.6 °F /  7.6 °C 30.25in /  1024.3hPa East 5.3mph /  8.5km/h 10mph /  16.1km/h 72.2% 0.00in /  0mm 0 W/m2
23:04 54.1 °F /  12.3 °C 45.7 °F /  7.6 °C 30.26in /  1024.6hPa East 1.1mph /  1.8km/h 11mph /  17.7km/h 73% 0.00in /  0mm 0 W/m2
23:09 54 °F /  12.2 °C 45.6 °F /  7.6 °C 30.26in /  1024.6hPa ENE 5.6mph /  9km/h 11mph /  17.7km/h 73% 0.00in /  0mm 0 W/m2
23:14 53.9 °F /  12.2 °C 45.6 °F /  7.6 °C 30.26in /  1024.6hPa NE 3mph /  4.8km/h 8mph /  12.9km/h 73.4% 0.00in /  0mm 0 W/m2
23:19 53.6 °F /  12 °C 45.5 °F /  7.5 °C 30.26in /  1024.6hPa NE 5.8mph /  9.3km/h 12mph /  19.3km/h 74% 0.00in /  0mm 0 W/m2
23:24 53.3 °F /  11.8 °C 45.2 °F /  7.3 °C 30.26in /  1024.6hPa ENE 6.8mph /  10.9km/h 12mph /  19.3km/h 74% 0.00in /  0mm 0 W/m2
23:29 53.1 °F /  11.7 °C 45.3 °F /  7.4 °C 30.26in /  1024.6hPa ENE 8.2mph /  13.2km/h 15mph /  24.1km/h 74.8% 0.00in /  0mm 0 W/m2
23:34 53 °F /  11.7 °C 45.2 °F /  7.3 °C 30.26in /  1024.6hPa ENE 7.5mph /  12.1km/h 15mph /  24.1km/h 75% 0.00in /  0mm 0 W/m2
23:39 52.7 °F /  11.5 °C 45 °F /  7.2 °C 30.26in /  1024.6hPa ENE 5.8mph /  9.3km/h 15mph /  24.1km/h 75% 0.00in /  0mm 0 W/m2
23:44 52.4 °F /  11.3 °C 45.1 °F /  7.3 °C 30.26in /  1024.6hPa NNE 2.3mph /  3.7km/h 15mph /  24.1km/h 76% 0.00in /  0mm 0 W/m2
23:49 52.3 °F /  11.3 °C 44.9 °F /  7.2 °C 30.26in /  1024.6hPa NNE 5.8mph /  9.3km/h 12mph /  19.3km/h 76% 0.00in /  0mm 0 W/m2
23:54 52.1 °F /  11.2 °C 44.7 °F /  7.1 °C 30.26in /  1024.6hPa ENE 4.9mph /  7.9km/h 12mph /  19.3km/h 76% 0.00in /  0mm 0 W/m2
23:59 51.9 °F /  11.1 °C 44.9 °F /  7.2 °C 30.26in /  1024.6hPa NE 4.9mph /  7.9km/h 11mph /  17.7km/h 77% 0.00in /  0mm 0 W/m2
Bath Spa Weather
Compliments of Weather Underground - 2 mb